sim
Sign-in with your pilot id or email,
or register
Callsign
Passwort

Schedule Details

Flight Number: DLH2546 (1)
Departure: Munich Airport (EDDM) at 18:35
Arrival: Kiev Boryspil International Airport (UKBB) at 20:45
Route: Lufthansa Passenger Schedule. Enter filed route here before submitting Pirep.

Weather Information
Getting current METAR information for EDDM 270850Z 21007KT 150V240 9999 FEW033 11/05 Q1005 NOSIG
Getting current METAR information for UKBB 270800Z 13007MPS 9000 -RA OVC024 20/12 Q1007 R18L/290050 TEMPO 13010G16MPS

Schedule Frequency

Route Map